Time;durP1;ratioP1;P1;durP2;ratioP2;P2;SDS_P1;SDS_P2;PMS_P1;PMS_P2;Temp;Humidity;BMP_temperature;BMP_pressure;BME280_temperature;BME280_humidity;BME280_pressure;Samples;Min_cycle;Max_cycle;Signal;HPM_P1;HPM_P2
2023/01/13 00:01:15;;;;;;;24.83;3.50;;;8.20;99.90;;;;;;5066029;28;20056;-40
2023/01/13 00:03:41;;;;;;;17.50;3.65;;;7.60;99.90;;;;;;5065883;28;20577;-41
2023/01/13 00:06:11;;;;;;;17.75;2.13;;;7.70;99.90;;;;;;5066129;28;20173;-40
2023/01/13 00:08:37;;;;;;;21.38;2.40;;;7.50;99.90;;;;;;5066121;28;20123;-41
2023/01/13 00:11:02;;;;;;;21.13;3.05;;;7.60;99.90;;;;;;5066443;28;20162;-40
2023/01/13 00:13:30;;;;;;;15.00;2.15;;;7.40;99.90;;;;;;5066091;28;20141;-40
2023/01/13 00:15:58;;;;;;;19.80;3.53;;;7.50;99.90;;;;;;5065926;28;20421;-40
2023/01/13 00:18:24;;;;;;;20.88;2.67;;;7.30;99.90;;;;;;5065794;28;20044;-40
2023/01/13 00:21:10;;;;;;;28.02;3.15;;;7.10;99.90;;;;;;5065934;28;20040;-40
2023/01/13 00:23:36;;;;;;;30.80;3.58;;;7.20;99.90;;;;;;5066283;28;20585;-40
2023/01/13 00:26:05;;;;;;;22.27;3.05;;;8.10;99.90;;;;;;5066047;28;20055;-40
2023/01/13 00:28:31;;;;;;;20.25;3.33;;;7.20;99.90;;;;;;5066456;28;20045;-40
2023/01/13 00:31:04;;;;;;;27.77;3.38;;;7.20;99.90;;;;;;5065851;28;20504;-40
2023/01/13 00:33:30;;;;;;;22.58;3.40;;;7.10;99.90;;;;;;5065979;28;20258;-40
2023/01/13 00:36:00;;;;;;;14.75;2.63;;;7.00;99.90;;;;;;5063646;28;20504;-40
2023/01/13 00:38:26;;;;;;;25.70;3.25;;;8.20;99.90;;;;;;5066095;28;20046;-40
2023/01/13 00:41:04;;;;;;;27.52;5.30;;;7.20;99.90;;;;;;5065698;28;20190;-40
2023/01/13 00:43:31;;;;;;;23.08;2.38;;;7.10;99.90;;;;;;5065893;28;20497;-40
2023/01/13 00:45:58;;;;;;;24.75;3.30;;;7.00;99.90;;;;;;5065724;28;20063;-40
2023/01/13 00:48:25;;;;;;;22.33;3.58;;;7.70;99.90;;;;;;5047375;28;20044;-40
2023/01/13 00:51:01;;;;;;;33.05;3.78;;;7.60;99.90;;;;;;5065467;28;20056;-40
2023/01/13 00:53:29;;;;;;;23.58;3.53;;;7.10;99.90;;;;;;5065482;28;20090;-40
2023/01/13 00:56:17;;;;;;;28.70;5.35;;;7.40;99.90;;;;;;5065426;28;20052;-40
2023/01/13 00:58:44;;;;;;;25.15;3.28;;;7.00;99.90;;;;;;5065663;28;20683;-40
2023/01/13 01:01:21;;;;;;;36.38;4.90;;;7.80;99.90;;;;;;5065955;28;20450;-40
2023/01/13 01:03:47;;;;;;;29.85;5.05;;;6.80;99.90;;;;;;5065404;28;20044;-40
2023/01/13 01:06:23;;;;;;;23.10;3.95;;;8.00;99.90;;;;;;5065492;28;20051;-40
2023/01/13 01:08:49;;;;;;;30.42;4.82;;;6.90;99.90;;;;;;5065117;28;20506;-40
2023/01/13 01:11:17;;;;;;;26.95;3.95;;;8.00;99.90;;;;;;5065340;28;20558;-40
2023/01/13 01:13:43;;;;;;;32.75;5.30;;;6.80;99.90;;;;;;5065159;28;20061;-41
2023/01/13 01:16:14;;;;;;;34.15;4.60;;;6.70;99.90;;;;;;5065351;28;20052;-40
2023/01/13 01:18:42;;;;;;;33.88;5.20;;;6.70;99.90;;;;;;5065332;28;20040;-40
2023/01/13 01:21:09;;;;;;;31.67;4.95;;;7.70;99.90;;;;;;5065174;28;20069;-40
2023/01/13 01:23:36;;;;;;;26.65;5.22;;;6.60;99.90;;;;;;5064990;28;20489;-41
2023/01/13 01:26:04;;;;;;;28.92;3.72;;;6.60;99.90;;;;;;5064522;28;20178;-41
2023/01/13 01:28:30;;;;;;;31.77;4.03;;;6.60;99.90;;;;;;5065643;28;20047;-41
2023/01/13 01:31:00;;;;;;;31.15;5.35;;;7.30;99.90;;;;;;5065720;28;20703;-40
2023/01/13 01:33:26;;;;;;;27.40;3.33;;;7.30;99.90;;;;;;5065646;28;20112;-40
2023/01/13 01:35:53;;;;;;;28.42;3.25;;;6.70;99.90;;;;;;5065075;28;20053;-40
2023/01/13 01:38:21;;;;;;;29.42;3.97;;;7.80;99.90;;;;;;5065490;28;20041;-41
2023/01/13 01:40:47;;;;;;;27.27;4.72;;;7.20;99.90;;;;;;5065820;28;20052;-40
2023/01/13 01:46:04;;;;;;;31.50;4.00;;;7.20;99.90;;;;;;5069384;28;20050;-40
2023/01/13 01:48:41;;;;;;;17.33;3.45;;;6.70;99.90;;;;;;5069480;28;20049;-41
2023/01/13 01:51:10;;;;;;;27.15;3.88;;;6.70;99.90;;;;;;5069388;28;20769;-40
2023/01/13 01:53:36;;;;;;;30.95;3.80;;;6.60;99.90;;;;;;5069164;28;20047;-40
2023/01/13 01:56:02;;;;;;;34.08;5.22;;;6.60;99.90;;;;;;5069023;28;20048;-40
2023/01/13 01:58:45;;;;;;;24.83;4.15;;;6.60;99.90;;;;;;5050616;28;20364;-40
2023/01/13 02:01:14;;;;;;;13.85;2.10;;;7.50;99.90;;;;;;5068962;28;20044;-40
2023/01/13 02:03:47;;;;;;;23.70;2.78;;;6.60;99.90;;;;;;5069119;28;20102;-40
2023/01/13 02:06:12;;;;;;;;;;;6.70;99.90;;;;;;5069232;28;20153;-41
2023/01/13 02:08:39;;;;;;;21.27;3.72;;;7.30;99.90;;;;;;5069327;28;20354;-40
2023/01/13 02:12:28;;;;;;;26.75;3.13;;;6.60;99.90;;;;;;5068868;28;20040;-40
2023/01/13 02:13:51;;;;;;;21.20;3.42;;;6.60;99.90;;;;;;5068876;28;20084;-40
2023/01/13 02:16:23;;;;;;;23.00;3.05;;;6.50;99.90;;;;;;5068812;28;20377;-40
2023/01/13 02:19:19;;;;;;;31.85;2.88;;;6.60;99.90;;;;;;5069421;28;20042;-40
2023/01/13 02:21:54;;;;;;;30.73;3.60;;;6.60;99.90;;;;;;5069210;28;20059;-41
2023/01/13 02:24:54;;;;;;;21.02;3.75;;;6.60;99.90;;;;;;5068393;28;20567;-40
2023/01/13 02:27:50;;;;;;;24.58;3.63;;;6.60;99.90;;;;;;5068418;28;20444;-40
2023/01/13 02:33:12;;;;;;;30.30;4.35;;;6.60;99.90;;;;;;5068810;28;20492;-40
2023/01/13 02:36:23;;;;;;;30.85;4.38;;;6.60;99.90;;;;;;5068346;28;20055;-40
2023/01/13 02:38:55;;;;;;;29.35;3.60;;;6.70;99.90;;;;;;5068621;28;20044;-40
2023/01/13 02:44:25;;;;;;;27.25;3.88;;;6.60;99.90;;;;;;5068302;28;20044;-40
2023/01/13 02:47:00;;;;;;;24.67;3.35;;;7.00;99.90;;;;;;5068604;28;20076;-40
2023/01/13 02:49:42;;;;;;;25.20;3.05;;;7.10;99.90;;;;;;5067930;28;20048;-40
2023/01/13 02:52:12;;;;;;;24.55;3.70;;;6.60;99.90;;;;;;5068300;28;20068;-40
2023/01/13 02:54:43;;;;;;;33.63;4.10;;;6.60;99.90;;;;;;5050429;28;20105;-40
2023/01/13 02:57:11;;;;;;;18.80;3.22;;;7.50;99.90;;;;;;5068106;28;20048;-40
2023/01/13 02:59:38;;;;;;;31.92;4.50;;;6.70;99.90;;;;;;5068284;28;20710;-40
2023/01/13 03:02:07;;;;;;;29.08;4.22;;;6.80;99.90;;;;;;5068783;28;20063;-40
2023/01/13 03:04:49;;;;;;;21.58;2.90;;;7.20;99.90;;;;;;5068626;28;20032;-40
2023/01/13 03:07:32;;;;;;;27.52;3.75;;;6.50;99.90;;;;;;5068320;28;20139;-40
2023/01/13 03:10:06;;;;;;;;;;;6.40;99.90;;;;;;5068816;28;20072;-40
2023/01/13 03:12:50;;;;;;;27.25;2.72;;;6.40;99.90;;;;;;5067852;28;19966;-40
2023/01/13 03:16:00;;;;;;;26.15;3.33;;;7.00;99.90;;;;;;5067726;28;20063;-40
2023/01/13 03:18:40;;;;;;;27.55;3.42;;;6.60;99.90;;;;;;5067718;28;20048;-40
2023/01/13 03:21:10;;;;;;;28.50;4.18;;;6.50;99.90;;;;;;5067981;28;20725;-40
2023/01/13 03:23:57;;;;;;;35.90;3.90;;;7.00;99.90;;;;;;5067822;28;20044;-41
2023/01/13 03:26:32;;;;;;;33.35;3.75;;;6.50;99.90;;;;;;5067467;28;20382;-40
2023/01/13 03:29:23;;;;;;;24.98;4.18;;;6.40;99.90;;;;;;5067789;28;20072;-40
2023/01/13 03:32:06;;;;;;;22.20;2.97;;;6.50;99.90;;;;;;5067777;28;20047;-40
2023/01/13 03:34:52;;;;;;;36.08;4.22;;;6.50;99.90;;;;;;5067337;28;20040;-40
2023/01/13 03:37:22;;;;;;;31.60;3.90;;;6.50;99.90;;;;;;5067210;28;20036;-40
2023/01/13 03:39:58;;;;;;;30.95;3.58;;;6.40;99.90;;;;;;5066979;28;20048;-40
2023/01/13 03:42:26;;;;;;;28.75;5.22;;;7.30;99.90;;;;;;5066763;28;20040;-40
2023/01/13 03:44:55;;;;;;;30.50;5.13;;;6.40;99.90;;;;;;5067184;28;20052;-40
2023/01/13 03:47:43;;;;;;;26.25;4.20;;;6.80;99.90;;;;;;5067081;28;20070;-40
2023/01/13 03:50:13;;;;;;;32.47;4.53;;;6.40;99.90;;;;;;5066117;28;20098;-40
2023/01/13 03:52:57;;;;;;;44.50;5.28;;;6.40;99.90;;;;;;5067296;28;20159;-40
2023/01/13 03:55:33;;;;;;;24.48;3.47;;;6.40;99.90;;;;;;5066648;28;20448;-40
2023/01/13 03:58:18;;;;;;;28.10;4.40;;;6.70;99.90;;;;;;5065496;28;20402;-40
2023/01/13 04:00:56;;;;;;;21.13;3.30;;;6.40;99.90;;;;;;5067157;28;20052;-40
2023/01/13 04:03:32;;;;;;;31.08;4.60;;;6.50;99.90;;;;;;5066683;28;20078;-40
2023/01/13 04:06:10;;;;;;;36.03;4.45;;;6.50;99.90;;;;;;5067120;28;20045;-40
2023/01/13 04:08:43;;;;;;;41.47;6.68;;;6.50;99.90;;;;;;5067060;28;20083;-40
2023/01/13 04:11:17;;;;;;;27.63;3.00;;;6.50;99.90;;;;;;5066930;28;20052;-40
2023/01/13 04:13:45;;;;;;;23.88;3.97;;;7.50;99.90;;;;;;5066548;28;20098;-40
2023/01/13 04:16:11;;;;;;;29.38;3.40;;;6.70;99.90;;;;;;5066992;28;20098;-40
2023/01/13 04:18:38;;;;;;;30.55;4.25;;;7.80;99.90;;;;;;5066864;28;20044;-40
2023/01/13 04:21:06;;;;;;;26.65;3.63;;;6.90;99.90;;;;;;5066743;28;20478;-40
2023/01/13 04:23:32;;;;;;;29.58;4.50;;;6.90;99.90;;;;;;5066539;28;20048;-40
2023/01/13 04:25:58;;;;;;;30.13;4.25;;;6.90;99.90;;;;;;5066783;28;20052;-40
2023/01/13 04:28:24;;;;;;;29.00;3.78;;;7.10;99.90;;;;;;5066490;28;20780;-40
2023/01/13 04:30:50;;;;;;;23.52;3.95;;;7.00;99.90;;;;;;5066271;28;20127;-40
2023/01/13 04:33:18;;;;;;;29.27;4.60;;;6.80;99.90;;;;;;5066641;28;20462;-40
2023/01/13 04:35:45;;;;;;;33.00;4.55;;;6.80;99.90;;;;;;5065928;28;20044;-40
2023/01/13 04:38:14;;;;;;;29.42;5.40;;;7.50;99.90;;;;;;5066301;28;20043;-40
2023/01/13 04:40:41;;;;;;;41.75;5.30;;;6.70;99.90;;;;;;5066068;28;20084;-40
2023/01/13 04:43:06;;;;;;;23.65;3.65;;;7.40;99.90;;;;;;5066523;28;20032;-41
2023/01/13 04:45:32;;;;;;;29.20;4.03;;;7.60;99.90;;;;;;5066481;28;20055;-40
2023/01/13 04:47:58;;;;;;;30.38;5.47;;;7.20;99.90;;;;;;5066717;28;20452;-40
2023/01/13 04:50:24;;;;;;;22.67;5.30;;;6.70;99.90;;;;;;5065927;28;20044;-40
2023/01/13 04:52:51;;;;;;;28.75;3.78;;;7.20;99.90;;;;;;5066300;28;20839;-40
2023/01/13 04:55:18;;;;;;;30.58;3.60;;;7.60;99.90;;;;;;5066009;28;20417;-40
2023/01/13 04:57:44;;;;;;;27.70;3.28;;;7.60;99.90;;;;;;5048117;28;20056;-39
2023/01/13 05:00:12;;;;;;;27.67;4.82;;;6.70;99.90;;;;;;5066562;28;20040;-39
2023/01/13 05:02:38;;;;;;;24.02;3.88;;;6.70;99.90;;;;;;5066051;28;20056;-40
2023/01/13 05:05:04;;;;;;;20.13;4.38;;;6.70;99.90;;;;;;5066453;28;20048;-39
2023/01/13 05:07:30;;;;;;;30.73;4.40;;;6.70;99.90;;;;;;5066127;28;20380;-40
2023/01/13 05:09:55;;;;;;;30.00;4.82;;;6.70;99.90;;;;;;5065981;28;20036;-40
2023/01/13 05:17:50;;;;;;;25.67;2.83;;;6.80;99.90;;;;;;5066222;28;20059;-40
2023/01/13 05:20:17;;;;;;;25.80;4.70;;;6.70;99.90;;;;;;5070011;28;20040;-40
2023/01/13 05:25:27;;;;;;;26.40;5.35;;;7.80;99.90;;;;;;5069709;28;20127;-39
2023/01/13 05:27:58;;;;;;;24.05;4.03;;;6.90;99.90;;;;;;5069775;28;20127;-40
2023/01/13 05:30:30;;;;;;;26.70;5.10;;;6.90;99.90;;;;;;5069802;28;20044;-40
2023/01/13 05:32:56;;;;;;;30.73;4.22;;;7.20;99.90;;;;;;5069915;28;20037;-40
2023/01/13 05:35:23;;;;;;;30.25;4.70;;;6.90;99.90;;;;;;5069126;28;20068;-40
2023/01/13 05:37:48;;;;;;;27.80;3.95;;;6.90;99.90;;;;;;5069653;28;20037;-39
2023/01/13 05:43:20;;;;;;;28.55;4.65;;;6.90;99.90;;;;;;5069847;28;20103;-39
2023/01/13 05:45:57;;;;;;;21.90;3.05;;;7.80;99.90;;;;;;5069593;28;20043;-39
2023/01/13 05:48:31;;;;;;;28.90;3.22;;;6.80;99.90;;;;;;5070165;28;20036;-40
2023/01/13 05:50:57;;;;;;;25.73;3.88;;;6.70;99.90;;;;;;5069937;28;20047;-40
2023/01/13 05:53:23;;;;;;;22.23;2.92;;;6.70;99.90;;;;;;5069724;28;20389;-40
2023/01/13 05:55:52;;;;;;;20.77;2.58;;;6.90;99.90;;;;;;5069198;28;20041;-40
2023/01/13 05:58:20;;;;;;;29.40;3.22;;;6.60;99.90;;;;;;5069810;28;20494;-40
2023/01/13 06:00:46;;;;;;;23.83;3.80;;;6.70;99.90;;;;;;5069614;28;20049;-47
2023/01/13 06:03:19;;;;;;;31.13;2.90;;;6.70;99.90;;;;;;5070246;28;20051;-47
2023/01/13 06:05:46;;;;;;;23.58;2.95;;;6.80;99.90;;;;;;5035793;28;20131;-48
2023/01/13 06:08:13;;;;;;;26.02;4.28;;;6.70;99.90;;;;;;5051808;28;20656;-50
2023/01/13 06:10:39;;;;;;;26.45;4.45;;;6.70;99.90;;;;;;5051852;28;20119;-50
2023/01/13 06:13:05;;;;;;;22.23;2.60;;;6.70;99.90;;;;;;5069781;28;20067;-47
2023/01/13 06:15:40;;;;;;;18.40;4.28;;;7.60;99.90;;;;;;5069561;28;20102;-47
2023/01/13 06:18:06;;;;;;;19.85;2.25;;;6.80;99.90;;;;;;5051739;28;20390;-50
2023/01/13 06:20:35;;;;;;;24.52;4.75;;;6.90;99.90;;;;;;5034725;28;20052;-49
2023/01/13 06:23:03;;;;;;;24.45;4.70;;;6.90;99.90;;;;;;5035314;28;20044;-47
2023/01/13 06:26:07;;;;;;;21.40;3.08;;;7.20;99.90;;;;;;5051053;28;20048;-48
2023/01/13 06:28:36;;;;;;;16.85;3.25;;;7.00;99.90;;;;;;5068217;28;20090;-48
2023/01/13 06:31:09;;;;;;;18.48;2.22;;;7.10;99.90;;;;;;5069408;28;20106;-50
2023/01/13 06:33:43;;;;;;;17.08;2.03;;;7.10;99.90;;;;;;5069783;28;20551;-48
2023/01/13 06:36:21;;;;;;;15.80;2.28;;;7.10;99.90;;;;;;5070096;28;20576;-47
2023/01/13 06:38:55;;;;;;;20.27;3.45;;;7.20;99.90;;;;;;5069337;28;20044;-46
2023/01/13 06:44:19;;;;;;;17.95;3.25;;;7.20;99.90;;;;;;5069748;28;20368;-50
2023/01/13 06:46:48;;;;;;;15.45;3.80;;;7.20;99.90;;;;;;5033859;28;20061;-47
2023/01/13 06:49:15;;;;;;;18.58;2.53;;;7.20;99.90;;;;;;5003118;28;20040;-46
2023/01/13 06:51:48;;;;;;;28.13;2.88;;;7.20;99.90;;;;;;5069801;28;20036;-50
2023/01/13 06:54:16;;;;;;;20.63;3.17;;;7.30;99.90;;;;;;5051216;28;20075;-48
2023/01/13 06:56:42;;;;;;;13.98;2.83;;;7.20;99.90;;;;;;5050867;28;20087;-47
2023/01/13 06:59:08;;;;;;;9.32;1.48;;;7.20;99.90;;;;;;5068903;28;20076;-50
2023/01/13 07:01:38;;;;;;;18.27;2.42;;;7.30;99.90;;;;;;5069193;28;20102;-49
2023/01/13 07:04:07;;;;;;;10.63;1.88;;;7.30;99.90;;;;;;5069193;28;20045;-48
2023/01/13 07:06:33;;;;;;;14.98;2.28;;;7.20;99.90;;;;;;5051192;28;20036;-50
2023/01/13 07:08:59;;;;;;;13.43;2.42;;;7.20;99.90;;;;;;5051201;28;20055;-51
2023/01/13 07:11:25;;;;;;;20.20;2.95;;;7.20;99.90;;;;;;5068642;28;20037;-49
2023/01/13 07:16:39;;;;;;;17.17;2.35;;;7.10;99.90;;;;;;5067253;28;20490;-47
2023/01/13 07:19:07;;;;;;;13.38;3.10;;;7.10;99.90;;;;;;5050293;28;20059;-49
2023/01/13 07:21:33;;;;;;;11.15;1.58;;;7.10;99.90;;;;;;5050401;28;20044;-47
2023/01/13 07:23:58;;;;;;;12.60;1.73;;;7.10;99.90;;;;;;5068863;28;20083;-48
2023/01/13 07:26:24;;;;;;;14.38;3.60;;;7.50;99.90;;;;;;5050724;28;20567;-47
2023/01/13 07:28:50;;;;;;;13.50;1.70;;;7.00;99.90;;;;;;5068182;28;20417;-49
2023/01/13 07:31:19;;;;;;;9.27;1.50;;;7.60;99.90;;;;;;5068513;28;20597;-45
2023/01/13 07:33:46;;;;;;;14.18;1.73;;;7.00;99.90;;;;;;5050157;28;20055;-46
2023/01/13 07:36:12;;;;;;;14.23;1.77;;;8.10;99.90;;;;;;5049362;28;20048;-45
2023/01/13 07:38:43;;;;;;;14.77;1.52;;;7.50;99.90;;;;;;5067710;28;20050;-46
2023/01/13 07:43:56;;;;;;;14.40;1.45;;;7.60;99.90;;;;;;5067702;28;20121;-45
2023/01/13 07:46:22;;;;;;;13.45;1.42;;;7.30;99.90;;;;;;5066288;28;20084;-47
2023/01/13 07:48:48;;;;;;;11.93;1.73;;;7.00;99.90;;;;;;5067544;28;20040;-45
2023/01/13 07:51:13;;;;;;;9.60;1.70;;;6.80;99.90;;;;;;5067429;28;20045;-45
2023/01/13 07:53:39;;;;;;;10.60;1.20;;;7.10;99.90;;;;;;5067523;28;20044;-45
2023/01/13 07:56:06;;;;;;;15.95;2.10;;;6.70;99.90;;;;;;5067104;28;20048;-48
2023/01/13 07:58:33;;;;;;;14.73;1.40;;;6.70;99.90;;;;;;5067846;28;20040;-47
2023/01/13 08:00:58;;;;;;;12.55;2.17;;;6.60;99.90;;;;;;5067499;28;20044;-45
2023/01/13 08:03:25;;;;;;;16.60;5.97;;;6.60;99.90;;;;;;5065913;28;20055;-46
2023/01/13 08:05:52;;;;;;;14.18;1.98;;;6.90;99.90;;;;;;5067150;28;20051;-45
2023/01/13 08:08:18;;;;;;;12.77;1.48;;;7.50;99.90;;;;;;5067546;28;20093;-46
2023/01/13 08:10:44;;;;;;;15.82;1.50;;;7.10;99.90;;;;;;5067504;28;20079;-46
2023/01/13 08:13:19;;;;;;;8.57;1.30;;;7.00;99.90;;;;;;5062764;28;20080;-45
2023/01/13 08:15:51;;;;;;;14.35;2.28;;;6.40;99.90;;;;;;5050859;28;20065;-46
2023/01/13 08:18:20;;;;;;;17.52;2.67;;;7.10;99.90;;;;;;5067436;28;20044;-45
2023/01/13 08:20:47;;;;;;;13.23;1.25;;;7.30;99.90;;;;;;5067056;28;20036;-45
2023/01/13 08:23:13;;;;;;;18.23;1.77;;;6.30;99.90;;;;;;5066808;28;20127;-45
2023/01/13 08:25:38;;;;;;;16.48;1.70;;;7.10;99.90;;;;;;5066695;28;20782;-46
2023/01/13 08:28:04;;;;;;;15.98;3.08;;;7.50;99.90;;;;;;5066483;28;20048;-45
2023/01/13 08:30:30;;;;;;;17.58;2.75;;;6.50;99.90;;;;;;5066748;28;20048;-46
2023/01/13 08:32:56;;;;;;;19.38;2.58;;;7.10;99.90;;;;;;5066325;28;20461;-47
2023/01/13 08:35:22;;;;;;;9.65;1.55;;;6.60;99.90;;;;;;5066294;28;20075;-46
2023/01/13 08:37:49;;;;;;;19.90;1.85;;;6.60;99.90;;;;;;5066672;28;20183;-46
2023/01/13 08:40:15;;;;;;;25.17;2.65;;;7.00;99.90;;;;;;5066534;28;20041;-45
2023/01/13 08:42:41;;;;;;;16.15;2.97;;;6.50;99.90;;;;;;5066805;28;20119;-46
2023/01/13 08:45:08;;;;;;;21.90;3.25;;;7.20;99.90;;;;;;5066697;28;20151;-44
2023/01/13 08:47:33;;;;;;;16.27;2.28;;;6.60;99.90;;;;;;5066511;28;20036;-45
2023/01/13 08:49:59;;;;;;;16.27;2.33;;;6.70;99.90;;;;;;5066629;28;20556;-45
2023/01/13 08:52:25;;;;;;;15.52;1.63;;;7.60;99.90;;;;;;5066047;28;20544;-45
2023/01/13 08:54:51;;;;;;;21.30;2.13;;;6.60;99.90;;;;;;5066535;28;20041;-46
2023/01/13 08:57:18;;;;;;;13.80;1.48;;;6.70;99.90;;;;;;5065609;28;20131;-46
2023/01/13 08:59:45;;;;;;;16.58;2.22;;;7.70;99.90;;;;;;5065834;28;20143;-45
2023/01/13 09:02:16;;;;;;;15.57;1.55;;;6.80;99.90;;;;;;5065551;28;20044;-45
2023/01/13 09:04:42;;;;;;;22.02;2.97;;;6.80;99.90;;;;;;5066552;28;20143;-45
2023/01/13 09:07:08;;;;;;;15.45;1.80;;;6.80;99.90;;;;;;5066188;28;20044;-45
2023/01/13 09:09:34;;;;;;;20.20;2.88;;;6.90;99.90;;;;;;5048463;28;20047;-46
2023/01/13 09:14:46;;;;;;;25.65;3.38;;;7.00;99.90;;;;;;5066132;28;20502;-46
2023/01/13 09:17:12;;;;;;;19.80;2.22;;;7.20;99.90;;;;;;5066156;28;20355;-47
2023/01/13 09:19:37;;;;;;;23.83;2.78;;;8.00;99.90;;;;;;5066348;28;20063;-45
2023/01/13 09:22:03;;;;;;;18.77;2.50;;;7.10;99.90;;;;;;5066056;28;20048;-46
2023/01/13 09:24:29;;;;;;;17.75;4.38;;;8.10;99.90;;;;;;5065957;28;20047;-43
2023/01/13 09:26:55;;;;;;;16.05;2.20;;;7.10;99.90;;;;;;5066997;28;20143;-50
2023/01/13 09:29:21;;;;;;;20.27;3.25;;;7.10;99.90;;;;;;5067883;28;20043;-48
2023/01/13 09:31:46;;;;;;;15.13;1.90;;;7.10;99.90;;;;;;5067746;28;20040;-49
2023/01/13 09:37:00;;;;;;;19.05;1.95;;;7.00;99.90;;;;;;5066752;28;20059;-51
2023/01/13 09:39:26;;;;;;;28.30;3.00;;;7.10;99.90;;;;;;5066756;28;20060;-52
2023/01/13 09:44:57;;;;;;;18.42;3.90;;;7.00;99.90;;;;;;5066916;28;20083;-49
2023/01/13 09:47:46;;;;;;;21.40;2.10;;;6.60;99.90;;;;;;5066354;28;20045;-49
2023/01/13 09:51:00;;;;;;;33.28;3.33;;;6.50;99.90;;;;;;5066479;28;20116;-49
2023/01/13 09:53:34;;;;;;;28.25;2.15;;;6.50;99.90;;;;;;5049041;28;20045;-49
2023/01/13 09:56:00;;;;;;;30.45;5.28;;;6.50;99.90;;;;;;5066937;28;20048;-48
2023/01/13 09:58:26;;;;;;;26.23;3.47;;;6.60;99.90;;;;;;5066580;28;20364;-48
2023/01/13 10:00:54;;;;;;;23.98;2.95;;;6.60;99.90;;;;;;5066667;28;20080;-50
2023/01/13 10:03:31;;;;;;;30.65;2.58;;;7.00;99.90;;;;;;5066600;28;20056;-50
2023/01/13 10:06:18;;;;;;;24.13;3.25;;;6.60;99.90;;;;;;5069347;28;20474;-48
2023/01/13 10:08:46;;;;;;;21.80;2.15;;;6.60;99.90;;;;;;5070325;28;20127;-48
2023/01/13 10:14:18;;;;;;;29.58;3.22;;;7.10;99.90;;;;;;5069542;28;20510;-52
2023/01/13 10:17:16;;;;;;;29.10;2.95;;;7.30;99.90;;;;;;5069866;28;20059;-49
2023/01/13 10:20:13;;;;;;;19.20;2.63;;;6.60;99.90;;;;;;5070323;28;20052;-50
2023/01/13 10:23:25;;;;;;;15.48;1.77;;;6.60;99.90;;;;;;5069968;28;20047;-49
2023/01/13 10:26:09;;;;;;;28.90;3.03;;;6.70;99.90;;;;;;4987538;28;20042;-50
2023/01/13 10:28:34;;;;;;;21.38;2.75;;;6.70;99.90;;;;;;5062416;28;20048;-48
2023/01/13 10:31:08;;;;;;;36.78;3.70;;;6.70;99.90;;;;;;5069906;28;20059;-48
2023/01/13 10:33:34;;;;;;;24.27;2.92;;;6.50;99.90;;;;;;5051115;28;20119;-49
2023/01/13 10:36:20;;;;;;;20.70;4.30;;;6.60;99.90;;;;;;5069375;28;20127;-48
2023/01/13 10:38:47;;;;;;;15.25;1.58;;;6.50;99.90;;;;;;5069281;28;20041;-49
2023/01/13 10:41:16;;;;;;;24.33;2.78;;;7.40;99.90;;;;;;5069366;28;20583;-52
2023/01/13 10:43:58;;;;;;;29.92;2.67;;;6.50;99.90;;;;;;5069367;28;20040;-49
2023/01/13 10:46:24;;;;;;;32.93;3.47;;;6.50;99.90;;;;;;5068976;28;20052;-48
2023/01/13 10:49:15;;;;;;;21.85;3.13;;;7.10;99.90;;;;;;5069463;28;20835;-49
2023/01/13 10:51:43;;;;;;;31.67;3.50;;;6.50;99.90;;;;;;5058090;28;20051;-49
2023/01/13 10:54:12;;;;;;;21.92;3.53;;;7.30;99.90;;;;;;5069567;28;20040;-50
2023/01/13 10:56:39;;;;;;;25.77;2.72;;;7.50;99.90;;;;;;5069171;28;20083;-48
2023/01/13 10:59:23;;;;;;;35.97;4.95;;;7.10;99.90;;;;;;5069312;28;20757;-49
2023/01/13 11:02:22;;;;;;;30.73;3.22;;;6.60;99.90;;;;;;5069857;28;20067;-51
2023/01/13 11:04:54;;;;;;;40.15;4.70;;;6.60;99.90;;;;;;5069689;28;20052;-48
2023/01/13 11:07:32;;;;;;;26.95;4.03;;;6.60;99.90;;;;;;5069097;28;20052;-51
2023/01/13 11:10:26;;;;;;;27.63;2.25;;;6.70;99.90;;;;;;5069067;28;20830;-49
2023/01/13 11:12:51;;;;;;;29.10;2.75;;;6.70;99.90;;;;;;5069310;28;20386;-50
2023/01/13 11:15:23;;;;;;;28.42;3.10;;;6.70;99.90;;;;;;5068468;28;20056;-48
2023/01/13 11:17:59;;;;;;;;;;;7.60;99.90;;;;;;5069182;28;20037;-48
2023/01/13 11:20:37;;;;;;;32.22;3.35;;;6.80;99.90;;;;;;5069290;28;20472;-51
2023/01/13 11:23:45;;;;;;;31.45;2.95;;;6.80;99.90;;;;;;5069158;28;20049;-49
2023/01/13 11:26:22;;;;;;;29.40;4.75;;;6.80;99.90;;;;;;5058035;28;20095;-49
2023/01/13 11:28:59;;;;;;;33.15;3.05;;;6.80;99.90;;;;;;5069463;28;20041;-49
2023/01/13 11:31:46;;;;;;;25.98;2.72;;;6.80;99.90;;;;;;5068957;28;20079;-49
2023/01/13 11:34:31;;;;;;;39.17;3.22;;;6.90;99.90;;;;;;5068769;28;20045;-49
2023/01/13 11:37:00;;;;;;;23.98;3.38;;;6.90;99.90;;;;;;5069436;28;20040;-49
2023/01/13 11:39:43;;;;;;;32.35;3.35;;;6.90;99.90;;;;;;5069490;28;20143;-49
2023/01/13 11:42:30;;;;;;;33.60;2.95;;;7.20;99.90;;;;;;5070015;28;20134;-48
2023/01/13 11:45:17;;;;;;;27.70;3.90;;;6.90;99.90;;;;;;5069455;28;20053;-50
2023/01/13 11:47:50;;;;;;;31.27;3.00;;;6.90;99.90;;;;;;5050875;28;20053;-48
2023/01/13 11:50:49;;;;;;;19.75;3.42;;;7.70;99.90;;;;;;5069391;28;20040;-51
2023/01/13 11:53:15;;;;;;;32.33;2.75;;;6.90;99.90;;;;;;5062254;28;20080;-48
2023/01/13 11:55:53;;;;;;;22.75;3.20;;;6.80;99.90;;;;;;5069900;28;20080;-49
2023/01/13 11:58:43;;;;;;;14.48;1.40;;;6.80;99.90;;;;;;5069589;28;20071;-48
2023/01/13 12:01:27;;;;;;;17.45;2.05;;;6.90;99.90;;;;;;5051300;28;20048;-51
2023/01/13 12:04:17;;;;;;;27.73;3.92;;;6.80;99.90;;;;;;5069316;28;20051;-50
2023/01/13 12:06:44;;;;;;;18.38;1.92;;;6.90;99.90;;;;;;5068970;28;20044;-49
2023/01/13 12:09:44;;;;;;;22.98;1.92;;;7.10;99.90;;;;;;5069199;28;20048;-51
2023/01/13 12:12:31;;;;;;;21.95;2.15;;;6.90;99.90;;;;;;5069153;28;20472;-52
2023/01/13 12:15:12;;;;;;;29.63;3.22;;;7.00;99.90;;;;;;5068403;28;20429;-49
2023/01/13 12:18:03;;;;;;;36.67;4.72;;;6.90;99.90;;;;;;5068140;28;20041;-48
2023/01/13 12:20:37;;;;;;;21.92;1.45;;;6.90;99.90;;;;;;5068620;28;20044;-49
2023/01/13 12:23:10;;;;;;;27.30;2.60;;;6.90;99.90;;;;;;5050218;28;20044;-50
2023/01/13 12:25:50;;;;;;;22.40;2.53;;;8.10;99.90;;;;;;5068264;28;20080;-51
2023/01/13 12:28:23;;;;;;;18.88;2.47;;;7.90;99.90;;;;;;5068552;28;20048;-48
2023/01/13 12:30:59;;;;;;;;;;;7.70;99.90;;;;;;5069080;28;20043;-48
2023/01/13 12:34:19;;;;;;;18.13;2.33;;;8.10;99.90;;;;;;5068453;28;19971;-49
2023/01/13 12:37:18;;;;;;;23.10;2.22;;;7.10;99.90;;;;;;5011214;28;20047;-52
2023/01/13 12:40:18;;;;;;;15.05;2.45;;;7.00;99.90;;;;;;5067930;28;20028;-48
2023/01/13 12:45:38;;;;;;;16.73;1.98;;;7.10;99.90;;;;;;5068175;28;20382;-49
2023/01/13 12:48:05;;;;;;;16.80;2.72;;;7.20;99.90;;;;;;5068112;28;20044;-49
2023/01/13 12:50:30;;;;;;;18.92;2.13;;;7.10;99.90;;;;;;5068091;28;20051;-49
2023/01/13 12:53:20;;;;;;;17.90;2.67;;;7.10;99.90;;;;;;5068383;28;20044;-49
2023/01/13 12:55:51;;;;;;;15.02;1.40;;;7.40;99.90;;;;;;5068181;28;20053;-48
2023/01/13 12:58:27;;;;;;;19.00;2.55;;;7.10;99.90;;;;;;5068480;28;20044;-49
2023/01/13 13:00:59;;;;;;;15.60;1.20;;;7.10;99.90;;;;;;5068348;28;20037;-49
2023/01/13 13:03:33;;;;;;;18.75;1.55;;;7.10;99.90;;;;;;5068725;28;20037;-52
2023/01/13 13:06:18;;;;;;;16.65;2.17;;;7.10;99.90;;;;;;5068925;28;20048;-48
2023/01/13 13:09:01;;;;;;;15.43;1.65;;;7.10;99.90;;;;;;5050958;28;20458;-48
2023/01/13 13:14:36;;;;;;;19.70;2.35;;;7.10;99.90;;;;;;5068024;28;19981;-51
2023/01/13 13:17:27;;;;;;;16.60;2.08;;;7.00;99.90;;;;;;5068330;28;20070;-49
2023/01/13 13:19:57;;;;;;;14.13;2.63;;;7.10;99.90;;;;;;5068177;28;20552;-50
2023/01/13 13:22:26;;;;;;;11.73;1.70;;;7.00;99.90;;;;;;5068896;28;20048;-48
2023/01/13 13:24:54;;;;;;;12.93;1.83;;;7.00;99.90;;;;;;5068536;28;20083;-49
2023/01/13 13:27:44;;;;;;;9.38;1.20;;;7.00;99.90;;;;;;5069034;28;20044;-49
2023/01/13 13:30:26;;;;;;;12.60;1.50;;;7.00;99.90;;;;;;5068890;28;20041;-48
2023/01/13 13:32:55;;;;;;;17.05;1.63;;;7.00;99.90;;;;;;5069011;28;20402;-49
2023/01/13 13:35:54;;;;;;;15.30;2.50;;;7.00;99.90;;;;;;5067836;28;20704;-49
2023/01/13 13:47:05;;;;;;;;;;;7.00;99.90;;;;;;5072450;28;20063;-48
2023/01/13 13:49:54;;;;;;;11.48;0.93;;;7.00;99.90;;;;;;5071998;28;20013;-50
2023/01/13 13:52:54;;;;;;;11.63;1.65;;;7.00;99.90;;;;;;5072195;28;20112;-49
2023/01/13 13:55:22;;;;;;;14.95;1.35;;;7.00;99.90;;;;;;5071844;28;20105;-48
2023/01/13 13:57:53;;;;;;;10.85;1.25;;;7.00;99.90;;;;;;5071784;28;20048;-48
2023/01/13 14:00:19;;;;;;;13.93;1.80;;;7.30;99.90;;;;;;5071587;28;20074;-48
2023/01/13 14:03:00;;;;;;;16.52;0.95;;;7.10;99.90;;;;;;5072016;28;20036;-50
2023/01/13 14:05:36;;;;;;;8.10;0.60;;;7.40;99.90;;;;;;5071924;28;20428;-49
2023/01/13 14:08:08;;;;;;;13.65;1.30;;;7.10;99.90;;;;;;5071950;28;20450;-48
2023/01/13 14:10:37;;;;;;;7.63;0.73;;;7.10;99.90;;;;;;5071705;28;20047;-48
2023/01/13 14:13:28;;;;;;;10.63;1.25;;;7.10;99.90;;;;;;5071567;28;20473;-48